Time;durP1;ratioP1;P1;durP2;ratioP2;P2;SDS_P1;SDS_P2;PMS_P1;PMS_P2;Temp;Humidity;BMP_temperature;BMP_pressure;BME280_temperature;BME280_humidity;BME280_pressure;Samples;Min_cycle;Max_cycle;Signal;HPM_P1;HPM_P2
2021/06/01 00:00:25;;;;;;;;;4.80;4.80;;;;;31.55;53.90;98558.13;4896845;29;9602;-76
2021/06/01 00:02:54;;;;;;;;;5.80;5.80;;;;;31.56;54.03;98558.91;4896693;29;8857;-76
2021/06/01 00:05:23;;;;;;;;;5.60;5.60;;;;;31.56;54.25;98556.94;4896764;29;8992;-76
2021/06/01 00:07:51;;;;;;;;;6.00;6.00;;;;;31.46;54.31;98545.00;4896694;29;8908;-76
2021/06/01 00:10:20;;;;;;;;;4.80;4.80;;;;;31.60;53.96;98565.06;4896747;29;8861;-76
2021/06/01 00:12:49;;;;;;;;;6.00;6.00;;;;;31.60;53.97;98562.34;4896707;29;8889;-76
2021/06/01 00:15:17;;;;;;;;;4.20;4.20;;;;;31.58;54.05;98564.72;4896746;29;8983;-76
2021/06/01 00:17:46;;;;;;;;;3.80;3.80;;;;;31.63;54.01;98564.25;4896765;29;8888;-76
2021/06/01 00:20:15;;;;;;;;;4.80;4.80;;;;;31.61;53.54;98570.13;4896726;29;8879;-75
2021/06/01 00:22:44;;;;;;;;;7.00;7.00;;;;;31.61;53.80;98569.34;4896649;29;8873;-76
2021/06/01 00:25:14;;;;;;;;;4.20;4.20;;;;;31.54;53.80;98564.75;4896688;29;8862;-76
2021/06/01 00:27:42;;;;;;;;;5.80;5.80;;;;;31.57;54.06;98574.84;4896514;29;8881;-76
2021/06/01 00:30:11;;;;;;;;;4.60;4.60;;;;;31.57;53.49;98577.56;4896775;29;8873;-76
2021/06/01 00:32:40;;;;;;;;;5.40;5.40;;;;;31.57;53.90;98588.47;4895335;29;8853;-76
2021/06/01 00:35:09;;;;;;;;;5.40;5.40;;;;;31.50;53.83;98574.94;4896562;29;9646;-76
2021/06/01 00:37:38;;;;;;;;;4.20;4.20;;;;;31.50;53.74;98580.41;4896567;29;8968;-75
2021/06/01 00:40:07;;;;;;;;;5.40;5.40;;;;;31.55;53.83;98590.84;4896460;29;8942;-75
2021/06/01 00:42:36;;;;;;;;;4.80;4.80;;;;;31.57;53.59;98587.72;4896363;29;8881;-75
2021/06/01 00:45:06;;;;;;;;;5.60;5.60;;;;;31.57;53.35;98585.75;4896307;29;8861;-75
2021/06/01 00:47:34;;;;;;;;;5.20;5.20;;;;;31.59;52.95;98586.13;4896680;29;8919;-76
2021/06/01 00:50:03;;;;;;;;;5.20;5.20;;;;;31.60;52.97;98576.75;4899927;29;8858;-75
2021/06/01 00:52:32;;;;;;;;;5.40;5.40;;;;;31.64;52.67;98599.28;4899883;29;8873;-76
2021/06/01 00:55:04;;;;;;;;;4.00;4.00;;;;;31.68;52.67;98599.25;4899795;29;9588;-76
2021/06/01 00:57:35;;;;;;;;;5.20;5.20;;;;;31.63;53.40;98586.06;4899798;29;8866;-75
2021/06/01 01:00:09;;;;;;;;;4.80;4.80;;;;;31.55;53.38;98582.66;4899752;29;9597;-75
2021/06/01 01:02:38;;;;;;;;;4.80;4.80;;;;;31.64;52.70;98601.25;4899609;29;8869;-75
2021/06/01 01:05:10;;;;;;;;;5.00;5.00;;;;;31.71;53.54;98609.34;4899687;29;8866;-77
2021/06/01 01:07:46;;;;;;;;;4.80;4.80;;;;;31.68;53.70;98605.50;4896794;29;8888;-76
2021/06/01 01:10:16;;;;;;;;;4.60;4.60;;;;;31.76;53.84;98617.06;4898430;29;8865;-75
2021/06/01 01:12:51;;;;;;;;;5.00;5.00;;;;;31.76;53.32;98615.13;4898568;29;8849;-76
2021/06/01 01:15:22;;;;;;;;;6.25;6.25;;;;;31.85;53.91;98624.75;4898521;29;8889;-75
2021/06/01 01:17:53;;;;;;;;;4.20;4.20;;;;;31.88;53.49;98613.00;4897292;29;8879;-75
2021/06/01 01:20:56;;;;;;;;;3.20;3.20;;;;;31.90;53.17;98611.41;4897819;29;8869;-76
2021/06/01 01:23:31;;;;;;;;;6.20;6.20;;;;;31.94;54.20;98614.88;4898961;29;8876;-77
2021/06/01 01:26:14;;;;;;;;;4.00;4.00;;;;;31.97;52.74;98621.44;4896830;29;8893;-76
2021/06/01 01:29:10;;;;;;;;;4.60;4.60;;;;;31.98;52.59;98621.03;4897354;29;8853;-75
2021/06/01 01:31:52;;;;;;;;;5.60;5.60;;;;;31.99;52.82;98619.09;4897686;29;8937;-75
2021/06/01 01:34:23;;;;;;;;;6.60;5.40;;;;;31.99;52.70;98608.16;4897907;29;8865;-77
2021/06/01 01:36:53;;;;;;;;;6.20;6.20;;;;;32.05;52.27;98617.44;4927771;29;9016;-77
2021/06/01 01:39:25;;;;;;;;;4.80;4.80;;;;;32.02;52.46;98607.34;4897375;29;8870;-77
2021/06/01 01:41:55;;;;;;;;;3.20;3.20;;;;;32.05;52.83;98617.44;4897539;29;8857;-74
2021/06/01 01:44:26;;;;;;;;;3.80;3.80;;;;;32.09;53.42;98618.91;4897684;29;8944;-76
2021/06/01 01:47:07;;;;;;;;;5.00;5.00;;;;;32.00;53.30;98607.75;4896951;29;8869;-76
2021/06/01 01:49:37;;;;;;;;;4.00;4.00;;;;;32.15;53.31;98619.22;4910772;29;8865;-76
2021/06/01 01:52:06;;;;;;;;;5.20;5.20;;;;;32.17;52.33;98616.84;4897519;29;8900;-76
2021/06/01 01:54:36;;;;;;;;;4.20;4.20;;;;;32.21;52.26;98620.28;4897521;29;8882;-76
2021/06/01 01:57:11;;;;;;;;;5.00;5.00;;;;;32.20;52.24;98612.53;4897592;29;8976;-75
2021/06/01 01:59:40;;;;;;;;;3.80;3.80;;;;;32.17;52.58;98595.00;4895702;29;8885;-74
2021/06/01 02:02:10;;;;;;;;;4.20;4.20;;;;;32.33;52.67;98618.97;4897049;29;8948;-75
2021/06/01 02:04:42;;;;;;;;;6.80;6.80;;;;;32.28;52.18;98605.78;4897724;29;9688;-75
2021/06/01 02:07:11;;;;;;;;;6.00;6.00;;;;;32.39;51.99;98622.75;4920251;29;8862;-75
2021/06/01 02:09:40;;;;;;;;;5.20;5.20;;;;;32.41;52.40;98617.66;4912912;29;8883;-74
2021/06/01 02:12:09;;;;;;;;;6.00;6.00;;;;;32.43;51.96;98615.28;4915572;29;8867;-78
2021/06/01 02:14:38;;;;;;;;;4.80;4.80;;;;;32.47;51.63;98615.22;4915905;29;8897;-73
2021/06/01 02:17:07;;;;;;;;;5.80;5.80;;;;;32.43;51.72;98612.56;4915869;29;8867;-78
2021/06/01 02:19:36;;;;;;;;;5.60;5.60;;;;;32.50;52.00;98620.63;4915027;29;8894;-77
2021/06/01 02:25:09;;;;;;;;;7.00;7.00;;;;;32.54;51.97;98617.81;4915450;29;8863;-76
2021/06/01 02:28:02;;;;;;;;;6.60;6.60;;;;;32.55;51.51;98601.00;4915003;29;8925;-75
2021/06/01 02:30:55;;;;;;;;;7.20;5.00;;;;;32.58;52.45;98611.09;4913644;29;8871;-74
2021/06/01 02:33:29;;;;;;;;;4.20;3.20;;;;;32.60;51.68;98616.13;4913263;29;9589;-74
2021/06/01 02:36:01;;;;;;;;;7.00;7.00;;;;;32.64;52.24;98609.41;4912754;29;8946;-76
2021/06/01 02:38:32;;;;;;;;;6.60;6.60;;;;;32.58;51.55;98607.59;4906639;29;9643;-76
2021/06/01 02:41:04;;;;;;;;;5.60;5.60;;;;;32.64;51.53;98614.09;4904998;29;8859;-74
2021/06/01 02:43:33;;;;;;;;;5.40;5.40;;;;;32.68;51.83;98609.34;4911317;29;8866;-76
2021/06/01 02:46:02;;;;;;;;;5.60;5.60;;;;;32.71;52.31;98611.25;4913803;29;8883;-74
2021/06/01 02:48:32;;;;;;;;;4.60;4.40;;;;;32.68;51.56;98598.44;4909105;29;8920;-75
2021/06/01 02:53:46;;;;;;;;;5.20;5.20;;;;;32.85;51.71;98604.78;4913388;29;8828;-77
2021/06/01 02:56:16;;;;;;;;;6.40;6.40;;;;;32.93;51.15;98609.69;4913319;29;8902;-72
2021/06/01 02:58:47;;;;;;;;;6.00;6.00;;;;;32.94;51.61;98603.03;4910176;29;8894;-74
2021/06/01 03:01:25;;;;;;;;;7.80;7.80;;;;;33.02;50.85;98614.59;4912143;29;8923;-73
2021/06/01 03:03:57;;;;;;;;;6.20;6.20;;;;;33.03;50.85;98602.47;4912743;29;8871;-73
2021/06/01 03:06:29;;;;;;;;;5.40;5.40;;;;;33.10;50.67;98604.31;4911822;29;8839;-73
2021/06/01 03:09:21;;;;;;;;;6.00;6.00;;;;;33.14;50.62;98599.53;4913439;29;9021;-76
2021/06/01 03:11:52;;;;;;;;;5.20;5.20;;;;;33.19;50.68;98599.81;4852588;29;8935;-77
2021/06/01 03:14:23;;;;;;;;;5.00;5.00;;;;;33.16;50.93;98578.03;4853018;29;8847;-77
2021/06/01 03:16:52;;;;;;;;;2.00;2.00;;;;;33.33;50.64;98591.34;4850890;29;8940;-76
2021/06/01 03:19:33;;;;;;;;;4.60;4.60;;;;;33.34;50.17;98581.94;4847386;29;9073;-75
2021/06/01 03:22:02;;;;;;;;;5.00;5.00;;;;;33.45;50.40;98584.44;4853531;29;8858;-77
2021/06/01 03:24:37;;;;;;;;;6.20;6.20;;;;;33.37;50.01;98561.19;4840201;29;9596;-76
2021/06/01 03:27:07;;;;;;;;;5.20;5.20;;;;;33.61;49.72;98581.75;4852341;29;8875;-76
2021/06/01 03:29:57;;;;;;;;;4.40;4.40;;;;;33.60;49.00;98565.75;4854701;29;9601;-75
2021/06/01 03:32:26;;;;;;;;;5.00;5.00;;;;;33.72;49.79;98570.56;4794650;29;8890;-76
2021/06/01 03:34:56;;;;;;;;;3.80;3.80;;;;;33.80;49.47;98580.19;4790555;29;8903;-74
2021/06/01 03:37:24;;;;;;;;;6.80;6.80;;;;;33.81;49.85;98568.00;4791807;29;8918;-77
2021/06/01 03:39:53;;;;;;;;;4.40;4.40;;;;;33.83;49.34;98560.16;4796454;29;9051;-73
2021/06/01 03:42:45;;;;;;;;;5.20;5.20;;;;;33.82;49.40;98539.44;4797821;29;8860;-74
2021/06/01 03:45:15;;;;;;;;;4.00;4.00;;;;;33.85;48.96;98530.38;4797531;29;8921;-74
2021/06/01 03:48:07;;;;;;;;;4.80;4.80;;;;;34.05;48.95;98549.44;4801972;29;8852;-73
2021/06/01 03:50:37;;;;;;;;;6.40;6.40;;;;;34.08;49.42;98556.81;4812796;29;8869;-75
2021/06/01 03:53:06;;;;;;;;;4.40;4.40;;;;;34.09;49.75;98538.41;4816353;29;8993;-74
2021/06/01 03:55:45;;;;;;;;;5.40;5.40;;;;;34.09;48.95;98530.19;4812890;29;8901;-73
2021/06/01 03:58:17;;;;;;;;;6.80;6.80;;;;;34.10;49.20;98518.81;4815085;29;8882;-75
2021/06/01 04:00:46;;;;;;;;;4.00;4.00;;;;;34.18;49.18;98517.44;4809923;29;8880;-75
2021/06/01 04:03:15;;;;;;;;;5.80;5.80;;;;;34.22;48.39;98520.84;4803933;29;8880;-76
2021/06/01 04:05:43;;;;;;;;;4.80;4.80;;;;;34.29;48.49;98531.63;4811550;29;8948;-74
2021/06/01 04:08:12;;;;;;;;;5.20;5.00;;;;;34.39;48.52;98520.84;4812450;29;8871;-74
2021/06/01 04:10:43;;;;;;;;;4.00;4.00;;;;;34.45;48.46;98525.38;4909821;29;8839;-73
2021/06/01 04:13:12;;;;;;;;;7.00;7.00;;;;;34.51;48.10;98514.66;4905022;29;8929;-74
2021/06/01 04:15:40;;;;;;;;;5.20;5.20;;;;;34.55;49.03;98504.38;4904709;29;8874;-74
2021/06/01 04:18:09;;;;;;;;;5.00;5.00;;;;;34.66;49.28;98516.56;4895736;29;8877;-73
2021/06/01 04:20:38;;;;;;;;;7.20;7.20;;;;;34.75;48.82;98509.69;4899507;29;8884;-74
2021/06/01 04:23:07;;;;;;;;;2.80;2.80;;;;;34.81;47.82;98513.47;4905757;29;8955;-73
2021/06/01 04:25:45;;;;;;;;;4.80;4.80;;;;;34.84;47.70;98509.84;4913519;29;9006;-73
2021/06/01 04:28:14;;;;;;;;;5.40;5.00;;;;;34.96;47.98;98507.13;4913699;29;8846;-73
2021/06/01 04:30:44;;;;;;;;;3.40;3.40;;;;;35.06;47.88;98515.47;4905758;29;8858;-73
2021/06/01 04:33:14;;;;;;;;;3.00;3.00;;;;;35.13;47.96;98513.25;4908685;29;8847;-74
2021/06/01 04:35:42;;;;;;;;;4.80;4.80;;;;;35.13;46.90;98498.78;4926804;29;8847;-74
2021/06/01 04:38:14;;;;;;;;;4.40;4.40;;;;;35.18;47.06;98498.25;4914871;29;8851;-73
2021/06/01 04:40:43;;;;;;;;;4.60;4.60;;;;;35.27;46.71;98501.09;4914574;29;8861;-74
2021/06/01 04:43:12;;;;;;;;;4.00;4.00;;;;;35.26;47.44;98505.06;4907343;29;8980;-73
2021/06/01 04:45:41;;;;;;;;;3.20;3.20;;;;;35.19;47.04;98508.00;4906704;29;9636;-76
2021/06/01 04:48:10;;;;;;;;;2.80;2.80;;;;;35.09;46.75;98490.69;4908084;29;8858;-73
2021/06/01 04:50:39;;;;;;;;;2.40;2.40;;;;;35.17;47.31;98499.44;4921092;29;8875;-74
2021/06/01 04:53:08;;;;;;;;;3.00;3.00;;;;;35.16;46.79;98489.69;4905884;29;8865;-74
2021/06/01 04:55:37;;;;;;;;;4.00;3.00;;;;;35.28;47.54;98494.41;4906420;29;9094;-74
2021/06/01 04:58:06;;;;;;;;;3.00;3.00;;;;;35.29;46.74;98482.22;4911036;29;8859;-74
2021/06/01 05:00:34;;;;;;;;;3.00;3.00;;;;;35.53;47.63;98491.69;4913311;29;8962;-74
2021/06/01 05:03:03;;;;;;;;;2.80;2.80;;;;;35.57;46.06;98478.63;4912700;29;9013;-77
2021/06/01 05:05:32;;;;;;;;;2.60;2.60;;;;;35.66;46.83;98486.19;4913817;29;8831;-77
2021/06/01 05:08:00;;;;;;;;;3.60;3.60;;;;;35.66;47.41;98468.94;4915240;29;8859;-74
2021/06/01 05:10:29;;;;;;;;;4.00;4.00;;;;;35.77;46.40;98474.84;4913950;29;8957;-75
2021/06/01 05:12:58;;;;;;;;;5.00;5.00;;;;;35.86;46.07;98478.47;4912862;29;9011;-74
2021/06/01 05:15:27;;;;;;;;;3.00;3.00;;;;;35.98;45.72;98470.66;4908146;29;8861;-73
2021/06/01 05:17:56;;;;;;;;;1.60;1.60;;;;;36.09;45.42;98460.06;4915176;29;8862;-74
2021/06/01 05:20:48;;;;;;;;;2.00;2.00;;;;;36.07;44.80;98441.31;4915018;29;8819;-75
2021/06/01 05:23:20;;;;;;;;;3.40;3.40;;;;;36.29;45.37;98448.81;4904381;29;8879;-73
2021/06/01 05:25:54;;;;;;;;;2.60;2.60;;;;;36.41;45.20;98456.97;4911552;29;8937;-74
2021/06/01 05:28:24;;;;;;;;;1.20;1.20;;;;;36.38;44.33;98446.13;4911174;29;8851;-74
2021/06/01 05:33:29;;;;;;;;;2.00;2.00;;;;;36.43;44.54;98442.78;4911227;29;9770;-73
2021/06/01 05:35:58;;;;;;;;;3.00;3.00;;;;;36.43;44.39;98445.53;4911919;29;8929;-75
2021/06/01 05:38:30;;;;;;;;;1.80;1.80;;;;;36.45;44.88;98445.84;4913689;29;8897;-74
2021/06/01 05:41:01;;;;;;;;;2.40;1.80;;;;;36.43;44.46;98440.03;4914035;29;8870;-74
2021/06/01 05:43:30;;;;;;;;;1.80;1.80;;;;;36.43;45.11;98429.81;4916326;29;8871;-74
2021/06/01 05:45:59;;;;;;;;;1.80;1.80;;;;;36.40;44.37;98418.97;4911589;29;8995;-74
2021/06/01 05:48:28;;;;;;;;;2.60;2.60;;;;;36.39;43.47;98414.69;4921819;29;8921;-73
2021/06/01 05:50:58;;;;;;;;;2.80;2.80;;;;;36.37;44.65;98411.63;4903956;29;8881;-74
2021/06/01 05:53:27;;;;;;;;;1.00;1.00;;;;;36.36;44.46;98410.09;4897782;29;8847;-74
2021/06/01 05:55:56;;;;;;;;;3.20;3.20;;;;;36.38;44.36;98408.44;4915666;29;8866;-73
2021/06/01 05:58:25;;;;;;;;;1.60;1.60;;;;;36.48;44.27;98401.75;4916086;29;8859;-72
2021/06/01 06:00:55;;;;;;;;;1.80;1.80;;;;;36.65;43.79;98401.53;4903299;29;8865;-74
2021/06/01 06:03:24;;;;;;;;;1.40;1.40;;;;;36.81;43.46;98395.84;4912142;29;8862;-72
2021/06/01 06:05:53;;;;;;;;;1.00;1.00;;;;;36.96;43.47;98394.06;4898518;29;8905;-73
2021/06/01 06:08:22;;;;;;;;;3.20;3.20;;;;;37.08;43.38;98395.94;4912302;29;8899;-74
2021/06/01 06:10:51;;;;;;;;;2.80;2.80;;;;;37.21;42.30;98398.56;4905243;29;9549;-72
2021/06/01 06:13:20;;;;;;;;;1.80;1.80;;;;;37.30;42.42;98397.88;4902113;29;8869;-74
2021/06/01 06:15:49;;;;;;;;;3.20;3.20;;;;;37.35;42.13;98389.78;4897475;29;8861;-74
2021/06/01 06:18:37;;;;;;;;;2.80;2.80;;;;;37.40;43.26;98380.91;4897626;29;8869;-72
2021/06/01 06:21:07;;;;;;;;;3.00;3.00;;;;;37.47;43.06;98383.38;4896936;29;8873;-75
2021/06/01 06:23:41;;;;;;;;;2.60;2.00;;;;;37.46;42.88;98365.34;4896335;29;8869;-74
2021/06/01 06:26:11;;;;;;;;;1.80;1.80;;;;;37.57;41.77;98375.13;4895843;29;8865;-74
2021/06/01 06:28:40;;;;;;;;;3.20;3.20;;;;;37.64;41.69;98358.31;4900752;29;8872;-75
2021/06/01 06:31:08;;;;;;;;;1.20;1.20;;;;;37.74;41.33;98357.09;4914245;29;8978;-75
2021/06/01 06:33:38;;;;;;;;;2.60;2.60;;;;;37.85;41.33;98349.91;4910273;29;8843;-74
2021/06/01 06:36:07;;;;;;;;;2.00;2.00;;;;;37.96;40.99;98343.16;4901658;29;8847;-74
2021/06/01 06:38:36;;;;;;;;;3.00;3.00;;;;;37.90;41.39;98325.72;4915701;29;8945;-73
2021/06/01 06:41:12;;;;;;;;;2.00;2.00;;;;;38.11;40.56;98333.03;4914849;29;8863;-75
2021/06/01 06:43:48;;;;;;;;;1.60;1.60;;;;;38.26;40.98;98333.94;4915353;29;8873;-74
2021/06/01 06:46:29;;;;;;;;;2.00;2.00;;;;;38.35;41.46;98322.13;4908926;29;8945;-75
2021/06/01 06:48:59;;;;;;;;;1.80;1.80;;;;;38.46;40.45;98322.41;4896875;29;8940;-75
2021/06/01 06:51:28;;;;;;;;;1.60;1.60;;;;;38.63;40.42;98322.81;4895680;29;8888;-75
2021/06/01 06:53:57;;;;;;;;;2.00;2.00;;;;;38.74;40.92;98318.31;4896350;29;8940;-74
2021/06/01 06:56:28;;;;;;;;;1.60;1.60;;;;;38.85;41.56;98317.03;4896554;29;8869;-75
2021/06/01 06:58:59;;;;;;;;;1.40;1.40;;;;;38.98;39.67;98320.34;4896548;29;8968;-75
2021/06/01 07:01:28;;;;;;;;;1.00;1.00;;;;;39.08;38.95;98316.28;4896027;29;9596;-76
2021/06/01 07:03:57;;;;;;;;;1.00;1.00;;;;;39.16;39.77;98306.44;4896180;29;8880;-74
2021/06/01 07:06:27;;;;;;;;;1.00;1.00;;;;;39.18;39.59;98303.97;4896426;29;8872;-76
2021/06/01 07:08:56;;;;;;;;;1.00;1.00;;;;;39.19;40.22;98288.94;4896509;29;8889;-75
2021/06/01 07:11:25;;;;;;;;;1.40;1.40;;;;;39.12;38.91;98286.53;4895791;29;8877;-76
2021/06/01 07:14:11;;;;;;;;;1.00;1.00;;;;;39.15;39.95;98289.13;4895924;29;8873;-75
2021/06/01 07:16:40;;;;;;;;;1.20;1.20;;;;;39.17;39.88;98280.38;4896366;29;8881;-75
2021/06/01 07:19:09;;;;;;;;;1.00;1.00;;;;;39.23;39.89;98286.75;4896372;29;8961;-74
2021/06/01 07:21:38;;;;;;;;;1.40;1.40;;;;;39.23;39.33;98272.22;4896093;29;8979;-76
2021/06/01 07:24:07;;;;;;;;;2.00;2.00;;;;;39.33;38.11;98281.94;4895715;29;8870;-76
2021/06/01 07:26:36;;;;;;;;;1.00;1.00;;;;;39.38;38.39;98275.75;4896084;29;8869;-74
2021/06/01 07:29:05;;;;;;;;;1.40;1.40;;;;;39.35;37.44;98265.66;4896241;29;8880;-76
2021/06/01 07:31:34;;;;;;;;;0.80;0.80;;;;;39.43;37.60;98259.31;4896942;29;8857;-74
2021/06/01 07:34:03;;;;;;;;;0.60;0.60;;;;;39.45;37.87;98250.56;4897037;29;8889;-74
2021/06/01 07:36:31;;;;;;;;;1.00;1.00;;;;;39.59;38.05;98260.13;4897490;29;8862;-74
2021/06/01 07:39:23;;;;;;;;;1.40;1.40;;;;;39.67;36.80;98253.00;4897205;29;8813;-74
2021/06/01 07:41:52;;;;;;;;;1.00;1.00;;;;;39.70;39.18;98241.75;4897260;29;8853;-74
2021/06/01 07:44:21;;;;;;;;;2.00;2.00;;;;;39.73;37.16;98240.03;4897005;29;8857;-74
2021/06/01 07:46:50;;;;;;;;;1.00;1.00;;;;;39.80;37.10;98242.41;4896996;29;8902;-74
2021/06/01 07:49:19;;;;;;;;;1.00;1.00;;;;;39.84;36.43;98237.47;4896971;29;8865;-74
2021/06/01 07:51:48;;;;;;;;;1.00;1.00;;;;;39.89;36.60;98225.00;4926780;29;8941;-74
2021/06/01 07:54:17;;;;;;;;;1.80;1.80;;;;;39.91;37.32;98225.31;4896899;29;8880;-74
2021/06/01 07:56:46;;;;;;;;;1.00;1.00;;;;;39.98;37.59;98220.16;4911300;29;8858;-74
2021/06/01 07:59:14;;;;;;;;;1.80;1.80;;;;;40.02;36.79;98212.44;4899649;29;8869;-74
2021/06/01 08:01:43;;;;;;;;;1.00;1.00;;;;;40.02;37.77;98200.63;4900819;29;8908;-74
2021/06/01 08:04:12;;;;;;;;;1.00;1.00;;;;;40.06;39.34;98209.47;4900869;29;8885;-74
2021/06/01 08:06:41;;;;;;;;;1.60;1.60;;;;;39.95;37.61;98190.72;4900666;29;8853;-75
2021/06/01 08:09:10;;;;;;;;;1.60;1.60;;;;;39.96;38.24;98199.78;4900776;29;8958;-74
2021/06/01 08:11:40;;;;;;;;;1.00;1.00;;;;;39.97;37.23;98207.59;4900744;29;8880;-74
2021/06/01 08:14:09;;;;;;;;;1.00;1.00;;;;;39.95;39.60;98210.06;4900686;29;9671;-74
2021/06/01 08:16:40;;;;;;;;;1.40;1.40;;;;;39.94;37.17;98200.25;4900705;29;8861;-74
2021/06/01 08:19:19;;;;;;;;;1.00;1.00;;;;;39.83;36.20;98197.28;4900841;29;8862;-75
2021/06/01 08:21:59;;;;;;;;;1.60;1.60;;;;;39.78;37.22;98193.19;4900699;29;8862;-75
2021/06/01 08:24:28;;;;;;;;;2.00;2.00;;;;;39.80;37.73;98189.97;4900552;29;8869;-75
2021/06/01 08:26:57;;;;;;;;;2.80;2.80;;;;;39.71;37.27;98165.97;4900166;29;8861;-75
2021/06/01 08:29:25;;;;;;;;;2.60;2.60;;;;;39.85;38.81;98183.00;4900870;29;8872;-74
2021/06/01 08:31:54;;;;;;;;;1.40;1.40;;;;;39.85;37.66;98178.25;4900328;29;8867;-74
2021/06/01 08:34:23;;;;;;;;;1.80;1.80;;;;;39.86;38.68;98179.75;4900216;29;8972;-74
2021/06/01 08:36:54;;;;;;;;;1.80;1.80;;;;;39.85;39.18;98172.72;4900176;29;9718;-74
2021/06/01 08:39:26;;;;;;;;;1.00;1.00;;;;;39.83;38.12;98174.44;4900384;29;8869;-74
2021/06/01 08:41:57;;;;;;;;;1.00;1.00;;;;;39.74;37.44;98170.53;4914430;29;8964;-74
2021/06/01 08:44:27;;;;;;;;;2.00;2.00;;;;;39.67;37.86;98167.41;4900056;29;8877;-74
2021/06/01 08:46:56;;;;;;;;;2.00;2.00;;;;;39.55;38.84;98163.69;4900053;29;8861;-74
2021/06/01 08:49:25;;;;;;;;;1.00;1.00;;;;;39.51;38.77;98159.59;4899910;29;9632;-74
2021/06/01 08:51:54;;;;;;;;;0.00;0.00;;;;;39.49;39.75;98160.06;4899958;29;8876;-74
2021/06/01 08:54:22;;;;;;;;;1.00;1.00;;;;;39.45;37.93;98154.72;4899965;29;8857;-74
2021/06/01 08:56:52;;;;;;;;;1.00;1.00;;;;;39.39;36.66;98159.38;4899922;29;8861;-74
2021/06/01 08:59:21;;;;;;;;;2.00;2.00;;;;;39.31;38.74;98152.72;4899827;29;8877;-74
2021/06/01 09:01:49;;;;;;;;;2.00;2.00;;;;;39.27;38.72;98149.38;4900008;29;8861;-75
2021/06/01 09:04:18;;;;;;;;;2.00;2.00;;;;;39.20;39.67;98133.22;4899718;29;8983;-75
2021/06/01 09:06:57;;;;;;;;;2.00;2.00;;;;;39.13;38.92;98139.84;4899655;29;8940;-75
2021/06/01 09:09:45;;;;;;;;;1.40;1.40;;;;;39.09;38.94;98135.75;4899136;29;9703;-75
2021/06/01 09:15:17;;;;;;;;;2.20;2.20;;;;;39.22;39.49;98133.50;4899565;29;8877;-74
2021/06/01 09:23:23;;;;;;;;;0.80;0.80;;;;;39.39;38.30;98126.25;4899626;29;8829;-75
2021/06/01 09:25:59;;;;;;;;;1.80;1.80;;;;;39.46;38.12;98127.88;4899114;29;8953;-74
2021/06/01 09:28:27;;;;;;;;;1.80;1.80;;;;;39.45;37.44;98124.34;4899283;29;9630;-74
2021/06/01 09:31:01;;;;;;;;;0.60;0.60;;;;;39.52;37.94;98139.03;4899307;29;8857;-74
2021/06/01 09:33:32;;;;;;;;;1.00;1.00;;;;;39.51;37.96;98140.28;4899171;29;8873;-75
2021/06/01 09:36:03;;;;;;;;;0.40;0.40;;;;;39.49;37.83;98134.47;4899310;29;8953;-75
2021/06/01 09:38:48;;;;;;;;;2.00;2.00;;;;;39.52;39.53;98133.53;4899098;29;8892;-75
2021/06/01 09:41:24;;;;;;;;;1.00;1.00;;;;;39.47;38.47;98124.66;4899206;29;8873;-74
2021/06/01 09:43:55;;;;;;;;;1.00;1.00;;;;;39.55;37.90;98135.31;4899416;29;9701;-74
2021/06/01 09:46:33;;;;;;;;;1.40;1.40;;;;;39.56;38.93;98150.66;4899331;29;8969;-75
2021/06/01 09:49:14;;;;;;;;;0.80;0.80;;;;;39.55;40.47;98149.13;4898985;29;8869;-74
2021/06/01 09:52:04;;;;;;;;;2.00;2.00;;;;;39.51;38.19;98140.28;4899124;29;8877;-74
2021/06/01 09:54:45;;;;;;;;;1.00;1.00;;;;;39.46;38.46;98142.44;4898923;29;8887;-75
2021/06/01 09:57:21;;;;;;;;;1.80;1.80;;;;;39.44;37.80;98144.16;4898804;29;8885;-74
2021/06/01 10:00:15;;;;;;;;;3.00;3.00;;;;;39.43;37.80;98143.41;4898920;29;8853;-74
2021/06/01 10:02:46;;;;;;;;;1.80;1.80;;;;;39.42;38.08;98138.34;4898966;29;8893;-75
2021/06/01 10:05:20;;;;;;;;;2.20;2.20;;;;;39.43;38.19;98140.63;4898634;29;8861;-74
2021/06/01 10:07:51;;;;;;;;;2.00;2.00;;;;;39.46;38.32;98144.44;4898616;29;8869;-74
2021/06/01 10:10:23;;;;;;;;;0.80;0.80;;;;;39.49;37.62;98131.72;4898550;29;8875;-74
2021/06/01 10:12:58;;;;;;;;;1.60;1.60;;;;;39.49;38.39;98131.72;4898526;29;8858;-74
2021/06/01 10:15:30;;;;;;;;;1.20;1.20;;;;;39.51;38.36;98143.03;4898415;29;8853;-74
2021/06/01 10:18:07;;;;;;;;;2.40;2.40;;;;;39.50;39.08;98144.28;4898513;29;8857;-74
2021/06/01 10:20:38;;;;;;;;;1.40;1.40;;;;;39.47;37.98;98146.00;4912290;29;8885;-74
2021/06/01 10:23:08;;;;;;;;;2.00;2.00;;;;;39.40;37.77;98133.31;4898617;29;8865;-74
2021/06/01 10:25:38;;;;;;;;;2.40;2.40;;;;;39.37;38.50;98134.25;4898019;29;8857;-74
2021/06/01 10:28:09;;;;;;;;;1.00;1.00;;;;;39.34;38.20;98134.44;4899000;29;8850;-75
2021/06/01 10:30:42;;;;;;;;;1.60;1.60;;;;;39.24;38.14;98127.50;4898205;29;8940;-74
2021/06/01 10:33:16;;;;;;;;;2.00;2.00;;;;;39.27;37.79;98135.59;4898410;29;8949;-74
2021/06/01 10:36:03;;;;;;;;;3.60;3.60;;;;;39.22;37.98;98141.78;4898087;29;8877;-75
2021/06/01 10:52:24;;;;;;;;;1.20;1.20;;;;;38.99;38.30;98148.13;4897619;29;9572;-74
2021/06/01 10:54:57;;;;;;;;;1.40;1.40;;;;;38.92;38.41;98154.75;4897679;29;8873;-74
2021/06/01 10:57:56;;;;;;;;;1.00;1.00;;;;;38.84;38.27;98161.88;4897687;29;8862;-74
2021/06/01 11:03:08;;;;;;;;;1.60;1.60;;;;;38.72;38.35;98168.41;4897562;29;8885;-74
2021/06/01 11:05:59;;;;;;;;;1.20;1.20;;;;;38.66;38.94;98160.00;4896276;29;8879;-75
2021/06/01 11:08:45;;;;;;;;;1.60;1.60;;;;;38.61;38.68;98162.66;4898204;29;8892;-74
2021/06/01 11:11:33;;;;;;;;;1.20;1.20;;;;;38.54;38.77;98169.25;4897546;29;8877;-74
2021/06/01 11:14:29;;;;;;;;;1.40;1.40;;;;;38.46;39.41;98168.06;4897475;29;8869;-75
2021/06/01 11:17:00;;;;;;;;;2.00;2.00;;;;;38.38;39.21;98175.16;4897707;29;8936;-74
2021/06/01 11:19:51;;;;;;;;;1.60;1.60;;;;;38.29;38.84;98178.72;4897448;29;8866;-74
2021/06/01 11:22:28;;;;;;;;;1.00;1.00;;;;;38.19;39.91;98191.03;4897333;29;8865;-74
2021/06/01 11:33:35;;;;;;;;;2.80;2.80;;;;;37.74;40.21;98184.44;4897012;29;9579;-74
2021/06/01 11:36:07;;;;;;;;;2.00;2.00;;;;;37.71;40.57;98198.38;4897174;29;8876;-74
2021/06/01 11:38:47;;;;;;;;;3.40;3.40;;;;;37.61;40.65;98188.59;4897107;29;9012;-74
2021/06/01 11:44:19;;;;;;;;;3.60;3.60;;;;;37.38;40.76;98198.28;4897054;29;9583;-74
2021/06/01 11:46:55;;;;;;;;;2.00;2.00;;;;;37.25;40.59;98198.44;4897215;29;8877;-75
2021/06/01 11:52:07;;;;;;;;;5.20;5.20;;;;;37.16;41.00;98204.66;4896958;29;8873;-74
2021/06/01 11:54:37;;;;;;;;;6.20;6.00;;;;;37.13;40.69;98207.56;4896886;29;8858;-74
2021/06/01 12:02:26;;;;;;;;;15.20;15.20;;;;;37.01;41.43;98214.00;4897518;29;8865;-74
2021/06/01 12:18:45;;;;;;;;;10.60;10.60;;;;;36.71;41.46;98215.59;4896589;29;8862;-75
2021/06/01 12:21:46;;;;;;;;;9.20;9.20;;;;;36.66;41.39;98222.47;4896678;29;8849;-75
2021/06/01 12:24:20;;;;;;;;;12.40;12.40;;;;;36.56;41.70;98218.94;4896668;29;8893;-75
2021/06/01 12:32:28;;;;;;;;;14.60;14.60;;;;;36.45;41.85;98242.56;4896592;29;8999;-75
2021/06/01 12:43:29;;;;;;;;;13.00;13.00;;;;;36.32;42.42;98255.66;4896500;29;8884;-75
2021/06/01 13:19:41;;;;;;;;;9.40;9.40;;;;;35.94;43.14;98293.13;4899486;29;8873;-75
2021/06/01 13:36:49;;;;;;;;;6.40;6.40;;;;;35.70;42.42;98307.69;4899146;29;8912;-75
2021/06/01 13:47:54;;;;;;;;;7.80;7.80;;;;;35.66;43.30;98331.75;4899192;29;8857;-75
2021/06/01 13:55:46;;;;;;;;;7.40;7.40;;;;;35.60;43.91;98348.03;4898782;29;8885;-75
2021/06/01 14:01:12;;;;;;;;;10.00;10.00;;;;;35.61;44.00;98358.56;4898952;29;8869;-75
2021/06/01 14:20:26;;;;;;;;;8.40;8.20;;;;;35.42;44.44;98376.06;4898385;29;8921;-75
2021/06/01 14:36:17;;;;;;;;;4.00;4.00;;;;;35.19;44.25;98385.38;4898106;29;8883;-75
2021/06/01 14:39:09;;;;;;;;;6.40;6.40;;;;;35.19;44.62;98395.59;4898004;29;8877;-75
2021/06/01 15:24:30;;;;;;;;;6.20;6.20;;;;;34.83;46.36;98446.06;4898267;29;8999;-75
2021/06/01 15:30:07;;;;;;;;;4.60;4.60;;;;;34.78;46.20;98449.31;4897218;29;8861;-75
2021/06/01 15:49:02;;;;;;;;;6.20;6.20;;;;;34.73;46.96;98454.56;4897027;29;8940;-75
2021/06/01 15:54:54;;;;;;;;;5.40;5.40;;;;;34.67;46.71;98454.31;4896888;29;9694;-74
2021/06/01 16:22:16;;;;;;;;;8.00;8.00;;;;;34.46;47.47;98442.00;4900494;29;8875;-75
2021/06/01 16:33:00;;;;;;;;;8.40;8.40;;;;;34.44;47.68;98438.16;4900321;29;8876;-75
2021/06/01 17:05:04;;;;;;;;;8.60;8.60;;;;;34.22;48.60;98411.34;4899770;29;8880;-74
2021/06/01 17:12:53;;;;;;;;;5.80;5.80;;;;;34.14;48.25;98406.50;4899597;29;8854;-75
2021/06/01 17:15:23;;;;;;;;;8.60;8.60;;;;;34.09;48.60;98407.03;4899637;29;8872;-75